Braselton, Georgia
Current Conditions -  °F | °C
As of 12:55 PM on Tuesday 21 Oct 2014 (Local Time) from KWDR Reporting Station
Clear Clear  
Wind Chill: 75°   Ceiling: Unl
Heat Index: 75°   Visibility: 10mi
Dew Point: 58°   Wind: 12mph
Humidity: 55%   Direction: 310°NW
Pressure: 30.02"   Gusts: NA
Location:  34.11°N, 83.76°W
Report Text: KWDR 211655Z AUTO 31010KT 10SM CLR 24/14 A3002 RMK AO2 T02370142
Loading
Personal Weather Stations






























Interactive Weather Map
Tropical Storm Tracking
New forecast layout! Learn more

10-Day Weather Forecast

Advertisements
Track Severe Weather on mobile